Time;durP1;ratioP1;P1;durP2;ratioP2;P2;SDS_P1;SDS_P2;PMS_P1;PMS_P2;Temp;Humidity;BMP_temperature;BMP_pressure;BME280_temperature;BME280_humidity;BME280_pressure;Samples;Min_cycle;Max_cycle;Signal;HPM_P1;HPM_P2
2022/04/11 05:21:06;;;;;;;;;2.00;2.00;;;;;16.87;49.46;100913.50;5151708;27;45451;-74
2022/04/11 05:23:32;;;;;;;;;7.00;2.00;;;;;17.05;50.32;100913.09;5136005;27;48225;-76
2022/04/11 05:25:57;;;;;;;;;3.00;0.75;;;;;17.35;50.25;100909.78;5140164;27;46175;-75
2022/04/11 05:28:23;;;;;;;;;1.75;1.50;;;;;17.75;49.93;100912.91;5136813;27;45865;-77
2022/04/11 05:30:48;;;;;;;;;2.25;2.00;;;;;18.19;49.52;100915.56;5138528;27;46394;-76
2022/04/11 05:33:15;;;;;;;;;2.00;2.00;;;;;18.65;48.91;100912.66;5134203;27;45419;-75
2022/04/11 05:35:40;;;;;;;;;1.00;1.00;;;;;19.14;48.03;100901.34;5133607;27;46696;-74
2022/04/11 05:38:06;;;;;;;;;1.75;1.75;;;;;19.60;46.85;100899.94;5133909;27;45661;-75
2022/04/11 05:40:31;;;;;;;;;2.00;2.00;;;;;20.03;46.43;100907.81;5133113;27;46088;-74
2022/04/11 05:42:56;;;;;;;;;1.75;1.75;;;;;20.43;45.75;100915.88;5132086;27;52587;-75
2022/04/11 05:45:21;;;;;;;;;2.75;2.25;;;;;20.78;45.13;100922.50;5134705;27;45489;-75
2022/04/11 05:47:47;;;;;;;;;4.50;2.00;;;;;21.09;44.24;100930.38;5135489;27;45710;-76
2022/04/11 05:50:12;;;;;;;;;2.00;1.00;;;;;21.37;44.53;100918.78;5133033;27;52883;-77
2022/04/11 05:52:38;;;;;;;;;2.00;2.00;;;;;21.61;43.60;100910.09;5119887;27;52233;-77
2022/04/11 05:55:04;;;;;;;;;2.67;1.33;;;;;21.85;43.19;100911.38;5137904;27;45469;-76
2022/04/11 05:57:29;;;;;;;;;3.33;2.67;;;;;22.09;42.90;100918.03;5138721;27;45665;-74
2022/04/11 05:59:54;;;;;;;;;3.67;3.00;;;;;22.25;42.15;100918.19;5128232;27;48045;-74
2022/04/11 06:02:19;;;;;;;;;2.00;2.00;;;;;22.45;42.07;100922.56;5143873;27;48842;-75
2022/04/11 06:04:45;;;;;;;;;1.33;1.33;;;;;22.58;41.78;100919.47;5140159;27;47972;-75
2022/04/11 06:07:10;;;;;;;;;2.33;2.00;;;;;22.73;41.55;100922.47;5143072;27;45883;-76
2022/04/11 06:09:35;;;;;;;;;4.33;1.67;;;;;22.86;41.38;100919.34;5140157;27;45502;-75
2022/04/11 06:12:01;;;;;;;;;3.00;2.00;;;;;22.98;41.24;100922.63;5140607;27;45560;-76
2022/04/11 06:14:27;;;;;;;;;6.00;3.00;;;;;23.09;40.88;100930.44;5140484;27;45544;-74
2022/04/11 06:16:52;;;;;;;;;4.00;3.00;;;;;23.20;40.77;100925.75;5127448;27;45481;-74
2022/04/11 06:19:18;;;;;;;;;3.33;3.33;;;;;23.28;40.25;100923.97;5146783;27;45739;-75
2022/04/11 06:21:43;;;;;;;;;6.67;5.00;;;;;23.24;39.95;100906.34;5145609;27;45492;-77
2022/04/11 06:24:09;;;;;;;;;6.33;4.67;;;;;23.47;40.16;100924.75;5143487;27;45354;-78
2022/04/11 06:26:34;;;;;;;;;2.00;2.00;;;;;23.37;40.03;100894.22;5139383;27;45367;-81
2022/04/11 06:29:00;;;;;;;;;4.67;4.67;;;;;23.65;39.90;100918.34;5136314;27;46095;-80
2022/04/11 06:31:25;;;;;;;;;4.67;4.67;;;;;23.59;39.54;100900.91;5129207;27;45315;-77
2022/04/11 06:33:50;;;;;;;;;5.67;2.00;;;;;23.71;40.02;100903.28;5149930;27;45495;-78
2022/04/11 06:36:16;;;;;;;;;3.00;1.67;;;;;23.76;39.82;100900.94;5118000;27;45332;-79
2022/04/11 06:38:41;;;;;;;;;2.00;2.00;;;;;23.82;39.86;100902.97;5118739;27;45993;-81
2022/04/11 06:41:07;;;;;;;;;6.00;3.00;;;;;24.05;39.75;100927.59;5122456;27;45305;-80
2022/04/11 06:43:32;;;;;;;;;3.00;3.00;;;;;24.07;39.50;100911.13;5132408;27;45457;-80
2022/04/11 06:45:58;;;;;;;;;5.00;2.00;;;;;24.17;39.50;100911.88;5126860;27;45506;-82
2022/04/11 06:48:23;;;;;;;;;4.00;2.33;;;;;24.22;39.20;100903.22;5119681;27;46073;-80
2022/04/11 06:50:50;;;;;;;;;4.00;3.00;;;;;24.25;39.23;100893.88;5123721;27;45394;-78
2022/04/11 06:53:16;;;;;;;;;3.33;2.00;;;;;24.31;39.12;100893.19;5124957;27;45551;-75
2022/04/11 06:55:47;;;;;;;;;6.00;3.00;;;;;24.37;39.04;100897.09;5121936;27;45837;-79
2022/04/11 06:58:12;;;;;;;;;3.33;3.33;;;;;24.41;39.14;100893.03;5118306;27;47785;-78
2022/04/11 07:00:38;;;;;;;;;2.00;2.00;;;;;24.45;38.96;100888.97;5116445;27;45410;-78
2022/04/11 07:03:03;;;;;;;;;5.00;2.00;;;;;24.47;38.90;100878.78;5129943;27;51612;-77
2022/04/11 07:05:28;;;;;;;;;3.33;1.33;;;;;24.51;38.83;100879.28;5125917;27;45557;-76
2022/04/11 07:07:54;;;;;;;;;3.33;2.00;;;;;24.52;39.09;100870.97;5126295;27;45786;-78
2022/04/11 07:10:19;;;;;;;;;3.00;3.00;;;;;24.53;39.04;100869.97;5118726;27;45492;-78
2022/04/11 07:12:45;;;;;;;;;3.00;3.00;;;;;24.55;39.27;100872.50;5116112;27;46214;-77
2022/04/11 07:15:10;;;;;;;;;4.00;2.00;;;;;24.57;38.73;100868.59;5127855;27;45919;-77
2022/04/11 07:17:35;;;;;;;;;4.67;3.00;;;;;24.58;38.68;100856.75;5125985;27;48663;-80
2022/04/11 07:20:02;;;;;;;;;4.33;2.67;;;;;24.62;38.97;100859.94;5129990;27;45408;-76
2022/04/11 07:22:28;;;;;;;;;5.00;3.00;;;;;24.66;38.93;100855.00;5128888;27;45465;-78
2022/04/11 07:24:53;;;;;;;;;6.67;2.67;;;;;24.66;39.23;100850.44;5127685;27;45377;-78
2022/04/11 07:27:19;;;;;;;;;3.00;3.00;;;;;24.64;38.84;100844.31;5126155;27;46028;-78
2022/04/11 07:29:44;;;;;;;;;3.00;2.00;;;;;24.71;38.77;100852.63;5117743;27;45407;-78
2022/04/11 07:32:09;;;;;;;;;1.67;1.67;;;;;24.70;38.94;100857.22;5125065;27;45746;-80
2022/04/11 07:34:35;;;;;;;;;3.00;2.00;;;;;24.72;38.54;100849.72;5134546;27;45505;-80
2022/04/11 07:37:00;;;;;;;;;5.00;3.00;;;;;24.74;38.70;100849.56;5121882;27;45959;-77
2022/04/11 07:39:25;;;;;;;;;3.33;3.33;;;;;24.74;38.38;100839.53;5128173;27;45417;-77
2022/04/11 07:41:53;;;;;;;;;2.33;2.00;;;;;24.73;38.38;100843.28;5127013;27;45451;-80
2022/04/11 07:44:18;;;;;;;;;2.67;2.67;;;;;24.72;38.76;100841.59;5124494;27;45605;-78
2022/04/11 07:46:44;;;;;;;;;7.00;2.00;;;;;24.72;38.68;100844.31;5126767;27;45702;-78
2022/04/11 07:49:09;;;;;;;;;2.67;2.67;;;;;24.72;38.50;100848.88;5120587;27;47222;-80
2022/04/11 07:51:34;;;;;;;;;3.00;1.33;;;;;24.74;38.54;100847.69;5107453;27;45426;-78
2022/04/11 07:54:00;;;;;;;;;3.00;2.33;;;;;24.73;38.60;100835.13;5129858;27;45618;-78
2022/04/11 07:56:26;;;;;;;;;2.67;2.67;;;;;24.72;38.46;100838.88;5123673;27;46203;-78
2022/04/11 07:58:52;;;;;;;;;4.33;3.00;;;;;24.74;38.62;100841.44;5128698;27;46686;-78
2022/04/11 08:01:17;;;;;;;;;3.00;3.00;;;;;24.74;38.78;100836.00;5122779;27;45453;-78
2022/04/11 08:03:44;;;;;;;;;4.00;2.33;;;;;24.74;38.95;100825.97;5122903;27;45490;-78
2022/04/11 08:06:09;;;;;;;;;3.00;1.33;;;;;24.76;38.61;100836.66;5131615;27;45928;-78
2022/04/11 08:08:35;;;;;;;;;1.00;1.00;;;;;24.81;38.84;100838.88;5124127;27;45449;-79
2022/04/11 08:11:00;;;;;;;;;4.33;2.67;;;;;24.82;38.57;100833.25;5120203;27;45526;-80
2022/04/11 08:13:25;;;;;;;;;2.50;2.00;;;;;24.85;38.47;100834.81;5118791;27;45336;-81
2022/04/11 08:15:50;;;;;;;;;3.00;3.00;;;;;24.88;38.24;100829.00;5140068;27;45430;-81
2022/04/11 08:18:16;;;;;;;;;1.33;1.33;;;;;24.89;37.68;100830.69;5126301;27;45910;-79
2022/04/11 08:20:41;;;;;;;;;1.00;1.00;;;;;24.90;37.73;100837.00;5123179;27;45325;-75
2022/04/11 08:23:06;;;;;;;;;2.00;2.00;;;;;24.90;37.25;100835.13;5121381;27;45387;-75
2022/04/11 08:25:32;;;;;;;;;2.00;2.00;;;;;24.89;37.03;100827.97;5113703;27;47327;-74
2022/04/11 08:27:57;;;;;;;;;3.33;3.00;;;;;24.90;37.02;100823.41;5120400;27;45500;-79
2022/04/11 08:30:23;;;;;;;;;1.67;1.67;;;;;24.88;36.96;100826.28;5111314;27;45504;-78
2022/04/11 08:32:52;;;;;;;;;1.00;1.00;;;;;24.86;36.87;100821.03;5106613;27;45640;-78
2022/04/11 08:35:21;;;;;;;;;3.00;3.00;;;;;24.84;37.66;100814.09;5120069;27;45549;-80
2022/04/11 08:37:47;;;;;;;;;1.00;1.00;;;;;24.85;37.41;100819.34;5122810;27;45446;-81
2022/04/11 08:40:14;;;;;;;;;2.67;2.33;;;;;24.84;37.51;100811.38;5117038;27;51690;-79
2022/04/11 08:42:42;;;;;;;;;1.33;1.33;;;;;24.86;37.57;100809.34;5114576;27;45521;-79
2022/04/11 08:45:08;;;;;;;;;3.00;2.00;;;;;24.88;37.71;100792.91;5128449;27;45500;-79
2022/04/11 08:47:35;;;;;;;;;2.00;2.00;;;;;24.88;37.48;100796.44;5127865;27;45690;-78
2022/04/11 08:50:02;;;;;;;;;4.33;1.33;;;;;24.89;37.47;100789.97;5125447;27;45386;-79
2022/04/11 08:52:29;;;;;;;;;2.00;2.00;;;;;24.91;37.59;100784.38;5118294;27;45563;-75
2022/04/11 08:54:55;;;;;;;;;2.00;0.67;;;;;24.90;37.73;100788.97;5119813;27;45409;-75
2022/04/11 08:57:22;;;;;;;;;4.00;2.00;;;;;24.89;37.76;100781.84;5119388;27;45570;-77
2022/04/11 08:59:47;;;;;;;;;1.00;1.00;;;;;24.91;37.89;100785.22;5116895;27;45497;-77
2022/04/11 09:02:13;;;;;;;;;2.67;1.00;;;;;24.91;37.75;100785.22;5116444;27;45481;-76
2022/04/11 09:04:54;;;;;;;;;2.00;2.00;;;;;24.93;37.79;100776.91;5114701;27;46144;-76
2022/04/11 09:07:19;;;;;;;;;2.67;2.00;;;;;24.95;37.54;100780.28;5117166;27;45256;-76
2022/04/11 09:09:45;;;;;;;;;1.00;1.00;;;;;24.95;37.59;100781.16;5120874;27;45828;-80
2022/04/11 09:12:16;;;;;;;;;2.67;2.00;;;;;24.97;37.42;100764.69;5127192;27;45465;-80
2022/04/11 09:14:42;;;;;;;;;1.33;1.33;;;;;25.02;37.48;100770.41;5105273;27;47322;-81
2022/04/11 09:17:11;;;;;;;;;3.00;1.33;;;;;25.05;37.58;100772.75;5125722;27;45409;-78
2022/04/11 09:19:41;;;;;;;;;2.00;2.00;;;;;25.05;37.66;100759.19;5129309;27;45540;-82
2022/04/11 09:22:06;;;;;;;;;1.00;1.00;;;;;25.06;37.45;100769.00;5122350;27;45599;-79
2022/04/11 09:24:31;;;;;;;;;2.00;2.00;;;;;25.07;37.87;100761.72;5126464;27;45889;-83
2022/04/11 09:26:57;;;;;;;;;2.00;2.00;;;;;25.08;37.64;100756.13;5127712;27;45421;-75
2022/04/11 09:29:23;;;;;;;;;1.33;1.00;;;;;25.09;37.57;100756.97;5124321;27;45625;-75
2022/04/11 09:31:50;;;;;;;;;1.67;1.67;;;;;25.08;36.62;100747.13;5120528;27;45556;-74
2022/04/11 09:34:28;;;;;;;;;2.00;0.33;;;;;25.08;36.55;100752.56;5123404;27;47034;-74
2022/04/11 09:36:58;;;;;;;;;3.33;2.00;;;;;25.05;36.49;100753.75;5118937;27;45432;-71
2022/04/11 09:39:36;;;;;;;;;4.67;3.00;;;;;25.03;36.26;100747.66;5114288;27;45392;-72
2022/04/11 09:42:05;;;;;;;;;2.67;2.00;;;;;25.01;36.22;100744.28;5117176;27;45560;-71
2022/04/11 09:44:33;;;;;;;;;2.67;2.00;;;;;24.97;36.25;100735.66;5124495;27;45501;-72
2022/04/11 09:47:06;;;;;;;;;1.67;1.67;;;;;24.97;36.04;100742.97;5111006;27;45897;-72
2022/04/11 09:49:32;;;;;;;;;1.00;1.00;;;;;24.95;36.03;100742.28;5124481;27;45403;-72
2022/04/11 09:52:15;;;;;;;;;1.67;1.67;;;;;24.93;36.15;100737.03;5149455;27;45317;-72
2022/04/11 09:54:50;;;;;;;;;2.33;2.33;;;;;24.91;35.69;100736.38;5130329;27;45543;-72
2022/04/11 09:57:17;;;;;;;;;2.00;2.00;;;;;24.92;35.77;100732.63;5119701;27;45386;-72
2022/04/11 09:59:44;;;;;;;;;1.67;1.67;;;;;24.91;35.71;100727.38;5119762;27;45325;-71
2022/04/11 10:02:10;;;;;;;;;5.00;3.00;;;;;24.89;35.86;100732.97;5120580;27;45841;-73
2022/04/11 10:04:37;;;;;;;;;2.00;2.00;;;;;24.89;35.76;100732.97;5121408;27;45690;-72
2022/04/11 10:07:03;;;;;;;;;3.00;2.33;;;;;24.89;35.65;100730.25;5121448;27;45483;-72
2022/04/11 10:09:29;;;;;;;;;2.00;2.00;;;;;24.88;35.50;100723.13;5122094;27;45514;-72
2022/04/11 10:11:55;;;;;;;;;0.67;0.67;;;;;24.88;35.70;100728.56;5125543;27;45302;-72
2022/04/11 10:14:26;;;;;;;;;5.00;2.00;;;;;24.88;35.46;100725.84;5127267;27;45335;-71
2022/04/11 10:16:57;;;;;;;;;1.00;1.00;;;;;24.86;35.55;100717.88;5113915;27;45488;-72
2022/04/11 10:19:25;;;;;;;;;1.67;1.67;;;;;24.88;35.15;100727.75;5124707;27;45707;-71
2022/04/11 10:21:54;;;;;;;;;1.67;1.67;;;;;24.86;35.52;100714.34;5128130;27;45533;-71
2022/04/11 10:24:40;;;;;;;;;2.00;1.00;;;;;24.86;35.29;100714.34;5124374;27;45326;-71
2022/04/11 10:27:25;;;;;;;;;1.00;1.00;;;;;24.83;35.14;100718.25;5126077;27;45333;-71
2022/04/11 10:29:52;;;;;;;;;3.00;2.00;;;;;24.81;35.09;100709.41;5125268;27;47382;-71
2022/04/11 10:32:19;;;;;;;;;2.00;2.00;;;;;24.80;35.03;100709.59;5127296;27;45501;-71
2022/04/11 10:35:03;;;;;;;;;1.00;1.00;;;;;24.80;35.02;100701.47;5116951;27;47382;-72
2022/04/11 10:37:48;;;;;;;;;1.67;1.67;;;;;24.80;35.31;100706.88;5126620;27;47207;-72
2022/04/11 10:40:17;;;;;;;;;2.00;2.00;;;;;24.82;35.04;100697.53;5120359;27;45720;-72
2022/04/11 10:43:00;;;;;;;;;0.33;0.33;;;;;24.82;35.26;100683.13;5120399;27;45644;-72
2022/04/11 10:45:58;;;;;;;;;1.33;1.00;;;;;24.80;34.96;100668.88;5137541;27;45980;-72
2022/04/11 10:48:54;;;;;;;;;2.67;1.00;;;;;24.85;34.95;100677.38;5130581;27;45454;-72
2022/04/11 10:51:20;;;;;;;;;1.00;1.00;;;;;24.85;34.63;100680.91;5138479;27;45513;-72
2022/04/11 10:54:14;;;;;;;;;1.67;1.67;;;;;24.86;34.93;100679.06;5130459;27;45783;-72
2022/04/11 10:56:53;;;;;;;;;1.00;1.00;;;;;24.86;34.81;100674.44;5121733;27;46153;-71
2022/04/11 10:59:48;;;;;;;;;1.33;1.00;;;;;24.89;34.79;100672.41;5120694;27;45794;-72
2022/04/11 11:02:14;;;;;;;;;1.00;1.00;;;;;24.90;34.98;100665.97;5123360;27;45740;-72
2022/04/11 11:04:42;;;;;;;;;2.67;2.00;;;;;24.93;34.83;100660.19;5134105;27;45509;-72
2022/04/11 11:07:28;;;;;;;;;1.33;1.33;;;;;24.93;34.98;100660.19;5126476;27;46184;-72
2022/04/11 11:09:56;;;;;;;;;2.00;2.00;;;;;24.94;34.78;100668.16;5121007;27;45437;-72
2022/04/11 11:12:22;;;;;;;;;3.00;2.00;;;;;24.93;35.07;100660.19;5117534;27;45500;-74
2022/04/11 11:14:47;;;;;;;;;2.00;1.00;;;;;24.96;34.87;100657.09;5127601;27;45537;-72
2022/04/11 11:17:13;;;;;;;;;1.00;1.00;;;;;24.93;35.07;100660.19;5123598;27;45932;-74
2022/04/11 11:20:01;;;;;;;;;1.33;1.33;;;;;24.95;35.31;100664.41;5124727;27;47601;-73
2022/04/11 11:22:26;;;;;;;;;2.67;1.67;;;;;25.00;35.44;100675.56;5119676;27;45529;-73
2022/04/11 11:25:15;;;;;;;;;1.33;1.33;;;;;25.07;35.45;100677.56;5116474;27;45389;-72
2022/04/11 11:27:41;;;;;;;;;1.00;1.00;;;;;25.13;35.59;100674.09;5120379;27;46091;-72
2022/04/11 11:30:11;;;;;;;;;1.00;1.00;;;;;25.19;35.82;100675.25;5123371;27;45296;-72
2022/04/11 11:32:40;;;;;;;;;4.67;2.00;;;;;25.24;35.50;100679.13;5125436;27;45329;-73
2022/04/11 11:35:08;;;;;;;;;2.00;2.00;;;;;25.30;35.30;100679.44;5130309;27;45702;-73
2022/04/11 11:37:33;;;;;;;;;1.00;1.00;;;;;25.36;35.75;100684.13;5117530;27;46166;-73
2022/04/11 11:40:02;;;;;;;;;1.00;1.00;;;;;25.39;35.68;100681.88;5128823;27;45434;-74
2022/04/11 11:42:34;;;;;;;;;1.00;1.00;;;;;25.43;35.91;100682.38;5119662;27;45922;-72
2022/04/11 11:45:00;;;;;;;;;1.67;1.33;;;;;25.45;35.75;100674.88;5123958;27;45524;-74
2022/04/11 11:47:27;;;;;;;;;2.00;2.00;;;;;25.47;35.98;100670.09;5126841;27;46668;-73
2022/04/11 11:49:59;;;;;;;;;1.00;1.00;;;;;25.49;36.11;100672.63;5125611;27;45601;-73
2022/04/11 11:52:25;;;;;;;;;3.00;1.00;;;;;25.51;36.12;100671.41;5123843;27;45420;-73
2022/04/11 11:54:52;;;;;;;;;1.00;1.00;;;;;25.56;36.06;100656.47;5124257;27;45412;-73
2022/04/11 11:57:23;;;;;;;;;1.00;1.00;;;;;25.61;35.96;100659.47;5117235;27;45435;-72
2022/04/11 11:59:55;;;;;;;;;0.33;0.33;;;;;25.62;35.83;100648.44;5119398;27;56701;-73
2022/04/11 12:05:18;;;;;;;;;3.00;2.00;;;;;25.73;35.53;100644.41;5132899;27;45512;-72
2022/04/11 12:07:45;;;;;;;;;2.00;1.33;;;;;25.76;35.55;100640.47;5123197;27;46050;-72
2022/04/11 12:10:10;;;;;;;;;2.67;2.00;;;;;25.78;35.82;100643.84;5125067;27;45516;-72
2022/04/11 12:12:37;;;;;;;;;2.00;2.00;;;;;25.83;35.09;100641.41;5099156;27;45859;-73
2022/04/11 12:15:06;;;;;;;;;4.00;2.00;;;;;25.84;34.36;100648.56;5124235;27;45498;-71
2022/04/11 12:17:34;;;;;;;;;4.00;3.33;;;;;25.81;35.05;100648.91;5125446;27;45681;-71
2022/04/11 12:20:13;;;;;;;;;6.00;2.00;;;;;25.78;35.01;100636.53;5127233;27;45618;-71
2022/04/11 12:22:40;;;;;;;;;2.67;2.67;;;;;25.71;34.85;100626.59;5122713;27;45518;-72
2022/04/11 12:25:23;;;;;;;;;3.00;3.00;;;;;25.79;35.34;100632.78;5097928;27;45604;-72
2022/04/11 12:27:49;;;;;;;;;2.00;2.00;;;;;25.78;34.79;100624.81;5112330;27;46098;-71
2022/04/11 12:30:15;;;;;;;;;4.67;3.00;;;;;25.71;35.03;100594.81;5116901;27;45707;-71
2022/04/11 12:32:41;;;;;;;;;2.00;2.00;;;;;25.78;34.83;100598.50;5120160;27;45448;-71
2022/04/11 12:35:14;;;;;;;;;2.00;2.00;;;;;25.83;34.92;100586.22;5121464;27;45579;-72
2022/04/11 12:37:49;;;;;;;;;3.00;2.67;;;;;25.99;35.37;100601.50;5123414;27;46120;-72
2022/04/11 12:40:18;;;;;;;;;4.00;3.00;;;;;25.91;35.15;100580.66;5114912;27;45610;-72
2022/04/11 12:42:45;;;;;;;;;1.33;1.33;;;;;25.96;35.32;100583.69;5117009;27;45688;-72
2022/04/11 12:45:14;;;;;;;;;5.00;4.00;;;;;25.98;34.20;100569.88;5120815;27;45444;-72
2022/04/11 12:48:06;;;;;;;;;3.00;3.00;;;;;26.13;33.68;100584.31;5121535;27;45601;-72
2022/04/11 12:50:33;;;;;;;;;2.67;2.67;;;;;26.01;33.57;100567.63;5120644;27;45474;-72
2022/04/11 12:52:59;;;;;;;;;5.00;3.67;;;;;26.01;33.56;100566.78;5120375;27;45626;-72
2022/04/11 12:55:26;;;;;;;;;5.00;3.00;;;;;25.94;33.54;100558.53;5116848;27;45512;-73
2022/04/11 12:58:05;;;;;;;;;7.67;4.67;;;;;26.04;33.30;100574.56;5114847;27;45670;-72
2022/04/11 13:00:32;;;;;;;;;6.00;3.00;;;;;25.88;33.77;100559.31;5128332;27;45500;-72
2022/04/11 13:02:58;;;;;;;;;4.33;3.33;;;;;25.93;33.21;100589.47;5113480;27;45513;-72
2022/04/11 13:05:25;;;;;;;;;3.33;3.00;;;;;25.85;33.30;100576.84;5121923;27;45377;-72
2022/04/11 13:07:50;;;;;;;;;6.00;4.00;;;;;25.84;33.24;100574.31;5121922;27;46523;-71
2022/04/11 13:10:19;;;;;;;;;3.00;3.00;;;;;25.82;33.80;100579.09;5120410;27;46000;-72
2022/04/11 13:12:45;;;;;;;;;4.00;3.00;;;;;25.79;33.44;100572.97;5117122;27;45496;-71
2022/04/11 13:15:10;;;;;;;;;2.67;2.67;;;;;25.78;33.66;100574.03;5116426;27;45474;-72
2022/04/11 13:20:23;;;;;;;;;3.00;3.00;;;;;25.70;33.42;100554.25;5117483;27;45409;-72
2022/04/11 13:22:51;;;;;;;;;2.00;2.00;;;;;25.72;33.33;100547.59;5121858;27;45525;-72
2022/04/11 13:25:16;;;;;;;;;4.00;2.00;;;;;25.69;33.43;100553.41;5116915;27;45290;-72
2022/04/11 13:27:42;;;;;;;;;2.00;2.00;;;;;25.69;33.30;100561.56;5114292;27;46065;-72
2022/04/11 13:30:08;;;;;;;;;4.67;3.00;;;;;25.65;33.44;100547.50;5129125;27;45333;-72
2022/04/11 13:32:33;;;;;;;;;2.67;2.33;;;;;25.64;33.68;100547.69;5117967;27;45492;-72
2022/04/11 13:34:58;;;;;;;;;2.33;2.33;;;;;25.63;33.26;100546.00;5121684;27;45477;-72
2022/04/11 13:37:24;;;;;;;;;3.00;1.00;;;;;25.63;33.75;100548.72;5120697;27;45407;-71
2022/04/11 13:39:49;;;;;;;;;6.00;3.00;;;;;25.63;33.39;100535.13;5116891;27;46172;-71
2022/04/11 13:42:15;;;;;;;;;5.67;4.00;;;;;25.62;33.44;100533.44;5117610;27;45586;-72
2022/04/11 13:44:40;;;;;;;;;3.67;2.33;;;;;25.62;33.37;100531.56;5129870;27;45482;-72
2022/04/11 13:47:05;;;;;;;;;3.00;3.00;;;;;25.62;33.69;100523.41;5109784;27;47214;-72
2022/04/11 13:49:32;;;;;;;;;1.67;1.33;;;;;25.63;33.06;100514.22;5120452;27;45401;-72
2022/04/11 13:51:58;;;;;;;;;2.33;2.00;;;;;25.63;33.44;100514.22;5120232;27;49101;-72
2022/04/11 13:54:23;;;;;;;;;2.00;2.00;;;;;25.64;33.55;100518.66;5132223;27;45656;-72
2022/04/11 13:56:49;;;;;;;;;1.33;1.33;;;;;25.65;33.40;100511.31;5119144;27;45917;-72
2022/04/11 13:59:16;;;;;;;;;2.00;2.00;;;;;25.67;33.60;100514.72;5119135;27;45442;-72
2022/04/11 14:01:44;;;;;;;;;6.00;3.00;;;;;25.66;33.37;100507.56;5120933;27;45587;-71
2022/04/11 14:04:11;;;;;;;;;7.00;5.00;;;;;25.67;33.50;100506.56;5125277;27;45925;-72
2022/04/11 14:06:38;;;;;;;;;2.67;2.33;;;;;25.70;33.37;100495.28;5130952;27;45467;-72
2022/04/11 14:09:05;;;;;;;;;6.67;4.00;;;;;25.70;33.59;100500.72;5125608;27;45470;-72
2022/04/11 14:11:32;;;;;;;;;9.00;6.33;;;;;25.73;33.69;100502.22;5126355;27;45446;-74
2022/04/11 14:13:57;;;;;;;;;10.33;5.33;;;;;25.71;33.51;100496.97;5132818;27;45364;-72
2022/04/11 14:16:23;;;;;;;;;6.67;4.00;;;;;25.75;33.61;100489.31;5123006;27;45392;-72
2022/04/11 14:18:48;;;;;;;;;3.00;2.67;;;;;25.76;33.70;100480.09;5118966;27;45312;-71
2022/04/11 14:21:14;;;;;;;;;4.00;3.00;;;;;25.78;33.51;100484.31;5119957;27;45521;-71
2022/04/11 14:23:40;;;;;;;;;6.33;5.67;;;;;25.81;33.92;100483.09;5122100;27;45678;-72
2022/04/11 14:26:06;;;;;;;;;4.67;4.33;;;;;25.82;33.93;100475.78;5130938;27;45492;-74
2022/04/11 14:28:31;;;;;;;;;6.00;5.00;;;;;25.84;33.94;100479.16;5124899;27;45440;-72
2022/04/11 14:30:56;;;;;;;;;4.67;2.67;;;;;25.86;34.18;100466.19;5126502;27;45767;-73
2022/04/11 14:33:22;;;;;;;;;7.00;5.00;;;;;25.91;34.29;100471.91;5122974;27;45462;-73
2022/04/11 14:35:48;;;;;;;;;6.33;4.00;;;;;25.94;34.43;100468.81;5119192;27;45740;-73
2022/04/11 14:38:14;;;;;;;;;6.00;3.00;;;;;25.97;34.48;100464.88;5121470;27;45456;-74
2022/04/11 14:40:41;;;;;;;;;5.67;3.67;;;;;26.01;34.41;100460.72;5124685;27;45544;-73
2022/04/11 14:43:07;;;;;;;;;4.00;4.00;;;;;26.05;34.39;100459.31;5120603;27;45586;-71
2022/04/11 14:45:32;;;;;;;;;3.00;3.00;;;;;26.10;34.69;100456.00;5116471;27;46068;-70
2022/04/11 14:47:58;;;;;;;;;5.67;3.00;;;;;26.12;34.69;100456.66;5117643;27;45478;-74
2022/04/11 14:50:23;;;;;;;;;5.00;4.00;;;;;26.13;34.93;100453.75;5109855;27;46291;-72
2022/04/11 14:52:49;;;;;;;;;5.33;4.00;;;;;26.15;34.54;100459.84;5118342;27;45591;-72
2022/04/11 14:55:14;;;;;;;;;7.33;4.33;;;;;26.16;35.07;100449.81;5119534;27;46136;-73
2022/04/11 14:57:40;;;;;;;;;4.33;2.00;;;;;26.14;34.64;100438.28;5117096;27;46063;-72
2022/04/11 15:00:06;;;;;;;;;4.33;4.00;;;;;26.17;34.63;100444.16;5120071;27;45485;-72
2022/04/11 15:02:31;;;;;;;;;5.00;2.67;;;;;26.18;34.94;100440.44;5118926;27;45504;-73
2022/04/11 15:04:57;;;;;;;;;2.67;2.33;;;;;26.18;34.87;100434.13;5120786;27;51295;-73
2022/04/11 15:07:22;;;;;;;;;3.00;3.00;;;;;26.17;35.38;100441.44;5120851;27;45481;-73
2022/04/11 15:09:47;;;;;;;;;5.00;3.00;;;;;26.18;35.11;100440.44;5117588;27;47032;-74
2022/04/11 15:12:13;;;;;;;;;2.67;2.67;;;;;26.19;35.44;100438.53;5120232;27;45512;-75
2022/04/11 15:14:39;;;;;;;;;5.00;2.33;;;;;26.19;35.15;100433.09;5118302;27;46102;-74
2022/04/11 15:17:06;;;;;;;;;3.67;3.00;;;;;26.22;35.37;100440.00;5119160;27;46551;-75
2022/04/11 15:19:32;;;;;;;;;2.67;2.00;;;;;26.23;35.43;100433.56;5118825;27;47088;-74
2022/04/11 15:21:59;;;;;;;;;2.00;2.00;;;;;26.26;35.28;100438.63;5116004;27;45387;-73
2022/04/11 15:24:24;;;;;;;;;3.00;3.00;;;;;26.26;35.63;100435.91;5116152;27;45768;-73
2022/04/11 15:26:49;;;;;;;;;3.67;3.67;;;;;26.27;35.35;100432.16;5123551;27;45567;-74
2022/04/11 15:29:14;;;;;;;;;3.00;3.00;;;;;26.27;35.55;100426.69;5118698;27;45480;-75
2022/04/11 15:31:40;;;;;;;;;5.00;5.00;;;;;26.29;35.55;100430.09;5115790;27;49124;-74
2022/04/11 15:34:09;;;;;;;;;1.67;1.67;;;;;26.28;35.74;100426.50;5119522;27;45497;-75
2022/04/11 15:36:34;;;;;;;;;8.00;5.00;;;;;26.28;36.18;100439.28;5117934;27;45438;-76
2022/04/11 15:39:02;;;;;;;;;5.67;4.00;;;;;26.29;35.96;100432.81;5121893;27;45502;-75
2022/04/11 15:41:29;;;;;;;;;4.00;4.00;;;;;26.27;35.92;100423.97;5116705;27;45831;-74
2022/04/11 15:43:55;;;;;;;;;3.33;2.33;;;;;26.27;36.08;100424.84;5117793;27;47049;-74
2022/04/11 15:46:20;;;;;;;;;5.67;2.33;;;;;26.26;36.23;100431.31;5118394;27;45518;-72
2022/04/11 15:48:46;;;;;;;;;4.00;3.00;;;;;26.25;35.67;100429.66;5118775;27;45529;-72
2022/04/11 15:51:11;;;;;;;;;4.00;4.00;;;;;26.24;35.62;100433.34;5122534;27;45381;-73
2022/04/11 15:53:36;;;;;;;;;2.67;2.67;;;;;26.21;35.77;100435.63;5127176;27;45885;-73
2022/04/11 15:56:02;;;;;;;;;4.00;3.00;;;;;26.17;35.88;100437.91;5127906;27;54503;-74
2022/04/11 15:58:27;;;;;;;;;10.67;8.67;;;;;26.13;34.88;100423.00;5121877;27;45505;-75
2022/04/11 16:00:52;;;;;;;;;16.33;11.00;;;;;26.13;35.09;100432.00;5130732;27;45547;-73
2022/04/11 16:03:18;;;;;;;;;8.00;6.33;;;;;26.10;34.29;100421.50;5122019;27;45473;-73
2022/04/11 16:05:43;;;;;;;;;9.33;6.33;;;;;26.10;34.80;100417.94;5121522;27;45359;-74
2022/04/11 16:08:08;;;;;;;;;9.00;7.33;;;;;26.05;35.62;100432.97;5120114;27;45395;-75
2022/04/11 16:10:34;;;;;;;;;6.67;5.67;;;;;26.03;35.57;100434.19;5102089;27;45438;-71
2022/04/11 16:12:59;;;;;;;;;7.00;7.00;;;;;25.98;35.40;100425.75;5133867;27;46192;-73
2022/04/11 16:15:27;;;;;;;;;5.33;4.67;;;;;25.90;35.34;100429.44;5128796;27;46463;-73
2022/04/11 16:17:53;;;;;;;;;6.33;5.00;;;;;25.87;35.70;100433.38;5123602;27;45435;-73
2022/04/11 16:20:19;;;;;;;;;5.67;4.67;;;;;25.84;35.09;100439.22;5123220;27;45414;-74
2022/04/11 16:22:45;;;;;;;;;4.00;3.00;;;;;25.81;34.35;100427.88;5120642;27;45918;-74
2022/04/11 16:25:10;;;;;;;;;7.00;4.00;;;;;25.78;34.48;100432.66;5127456;27;45494;-74
2022/04/11 16:27:35;;;;;;;;;5.33;4.33;;;;;25.73;34.23;100431.56;5114835;27;45716;-74
2022/04/11 16:30:03;;;;;;;;;4.00;3.00;;;;;25.67;34.63;100430.47;5124342;27;45470;-74
2022/04/11 16:32:28;;;;;;;;;6.33;3.67;;;;;25.63;34.37;100427.25;5124952;27;52909;-74
2022/04/11 16:34:54;;;;;;;;;7.00;3.00;;;;;25.60;34.29;100434.94;5125328;27;45496;-74
2022/04/11 16:37:19;;;;;;;;;5.67;5.00;;;;;25.57;33.99;100433.47;5117525;27;45428;-74
2022/04/11 16:39:44;;;;;;;;;5.33;5.33;;;;;25.54;34.06;100431.09;5098012;27;45512;-74
2022/04/11 16:42:10;;;;;;;;;4.33;4.33;;;;;25.52;34.08;100427.72;5115541;27;46274;-74
2022/04/11 16:44:35;;;;;;;;;2.67;2.67;;;;;25.48;33.99;100427.28;5123924;27;45439;-74
2022/04/11 16:47:00;;;;;;;;;2.67;2.67;;;;;25.47;34.05;100428.28;5123900;27;45661;-76
2022/04/11 16:49:26;;;;;;;;;2.67;2.67;;;;;25.42;33.97;100419.84;5127390;27;46156;-73
2022/04/11 16:51:51;;;;;;;;;6.00;3.00;;;;;25.37;34.11;100417.72;5112167;27;46056;-72